Montrose, AR (71658)

9:41 AM CST on November 28, 2014 (GMT -0600)
Monticello Municipal-Ellis | Change Station
CLOSE
Current Station
Airport
Location: Monticello,
Elevation: 269 ft
Nearby Weather Stations

Elev 269 ft 33.64 °N, 91.76 °W | Updated 48 minutes ago

Clear
Clear
40 °F
Feels Like 34 °F
N
9
Wind Variable Wind from South
Gusts 18 mph

Today
High -- | Low -- °F
--% Chance of Precip.
Yesterday
High -- | Low -- °F
Precip. -- in
6:49 AM 4:58 PM
Waxing Crescent, 41% visible
Pressure 30.39 in
Visibility 10.0 miles
Clouds Clear
Windchill 34 °F
Dew Point 31 °F
Humidity 70%
Rainfall 0.00 in
Snow Depth Not available.
UV 1 out of 12
Pollen .30 out of 12
Air Quality Not available.
Flu Activity Not available.
METAR KLLQ 281453Z AUTO 17008G16KT 10SM CLR 04/M01 A3039 RMK AO2 SLP290 T00441006 57003

More Conditions Fewer Conditions

Pressure 30.39 in
Visibility 10.0 miles
Clouds Clear
Windchill 34 °F
Dew Point 31 °F
Humidity 70%
Rainfall 0.00 in
Snow Depth Not available.
UV 1 out of 12
Pollen .30 out of 12
Air Quality Not available.
Flu Activity Not available.
METAR KLLQ 281453Z AUTO 17008G16KT 10SM CLR 04/M01 A3039 RMK AO2 SLP290 T00441006 57003

More Conditions Fewer Conditions

10-Day Weather Forecast

Almanac

Astronomy

Nov. 28, 2014 Rise Set
Actual Time
Civil Twilight
Nautical Twilight
Astronomical Twilight
Moon
Length of Visible Light
Length of Day
Tomorrow will be .
, % of the Moon is Illuminated

Today's Extremes

State Highs State Lows

Community

WunderPhotos

Upload Photos

1,774,234 photos uploaded!

WunderBlogs® & News

Nearby

Air Quality

  Air Quality AQ Index Pollutant
Not available.

Snow Depth

Station Depth Elevation

Earthquake Activity

City Distance Mag. Time & Date
Minimum magnitude displayed is 2.5.

Coastal Water Temperatures

Place Temperature

Nearby Weather Stations